VDPPVVNB

Guest
Details From VDPP - Phnom Penh Intl
To VVNB - Hanoi Noibai Intl
Flight Number -
Tags Routegen Generated
Created
Modified
Stats Distance 590 nm / 1,093 km
Max Altitude 10,000 ft / 3,048 m
Waypoints 13
Social Downloads 4
Likes 0
Share VATSIM

Download

Looking for another format? Having issues loading an existing format? Contact us
Advertisement - Login to hide

Notes

Departing runway 4 VDPP. Arriving runway 10 VVNB.

Route

VDPP +11.61_+104.91 +11.66_+104.93 +11.72_+104.94 +13.65_+105.15 +15.58_+105.36 +17.52_+105.58 +20.00_+105.98 +21.05_+105.99 +21.11_+105.98 +21.16_+105.94 +21.19_+105.90 VVNB

ID Type Via Altitude Latitude Longitude Leg Dist Tot Dist Heading (true) Name
O VDPP APT - 0 ft / 0 m 11.55595˚ 104.85395˚ - 0 nm - -
+11.61_+104.91 LATLON - 460 ft / 140 m 11.60657˚ 104.90674˚ 4 nm 4 nm 46° / 46° -
+11.66_+104.93 LATLON - 1,450 ft / 442 m 11.65877˚ 104.93229˚ 3 nm 7 nm 26° / 26° -
+11.72_+104.94 LATLON - 2,860 ft / 872 m 11.71639˚ 104.93807˚ 3 nm 11 nm 6° / 6° -
+13.65_+105.15 LATLON - 10,000 ft / 3,048 m 13.64959˚ 105.14528˚ 116 nm 128 nm 6° / 6° -
+15.58_+105.36 LATLON - 10,000 ft / 3,048 m 15.58296˚ 105.35905˚ 116 nm 244 nm 6° / 6° -
+17.52_+105.58 LATLON - 10,000 ft / 3,048 m 17.51612˚ 105.57690˚ 116 nm 361 nm 6° / 6° -
+20.00_+105.98 LATLON - 6,250 ft / 1,905 m 20.99553˚ 105.98438˚ 210 nm 571 nm 6° / 6° -
+21.05_+105.99 LATLON - 4,530 ft / 1,381 m 21.05296˚ 105.99219˚ 3 nm 575 nm 7° / 7° -
+21.11_+105.98 LATLON - 2,860 ft / 872 m 21.10942˚ 105.97847˚ 3 nm 578 nm 347° / 347° -
+21.16_+105.94 LATLON - 1,450 ft / 442 m 21.15810˚ 105.94489˚ 3 nm 582 nm 327° / 327° -
+21.19_+105.90 LATLON - 460 ft / 140 m 21.19314˚ 105.89546˚ 3 nm 585 nm 307° / 307° -
O VVNB APT - 0 ft / 0 m 21.21459˚ 105.82133˚ 4 nm 590 nm 287° / 287° -

Altitude Profile

Advertisement - Login to hide

Weather


0- 5 10 15 20 25 30 35+ Temperature / ° C

Clouds and Precipitation
Forecast for 2017-12-12 00:00 UTC. Updated 4 minutes ago

Ground ~20,000 ft ~40,000 ft Winds

VDPP

Details ICAO VDPP (PNH)
Name Phnom Penh Intl
Region Cambodia
Timezone Asia/Phnom_Penh (UTC+7.0)
Stats Elevation 40 ft / 12 m (AMSL)
Location 11.546542° 104.844142°
Runways 1
Magnetic Variation 0.493° W

METAR

VDPP 111900Z VRB01KT 9000 FEW017 26/22 Q1011

Decode

TAF

TAF VDPP 111700Z 1118/1212 09005KT 9999 FEW017= TAF VDSR 111700Z 1118/1212 06004KT 9999 FEW017

Decode

Departure Runways

ID Width Length Bearing (true) Bearing (mag) Surface Threshold Offset Overrun Length
05 144 ft / 44 m 9,815 ft / 2,992 m 45.61° 46.10° Asphalt 400 ft / 122 m 0 ft / 0 m
23 144 ft / 44 m 9,815 ft / 2,992 m 225.61° 226.10° Asphalt 492 ft / 150 m 0 ft / 0 m

VVNB

Details ICAO VVNB (HAN)
Name Hanoi Noibai Intl
Region Vietnam
Timezone Asia/Ho_Chi_Minh (UTC+7.0)
Stats Elevation 39 ft / 12 m (AMSL)
Location 21.219739° 105.803774°
Runways 2
Magnetic Variation 1.479° W

METAR

VVNB 111900Z 02006KT 4800 BR BKN029 16/12 Q1018 NOSIG

Decode

TAF

TAF VVNB 111700Z 1118/1218 04003KT 6000 BKN035 BECMG 1120/1121 3500 BR TEMPO 1202/1206 2500 -RA BR SCT008 BKN030 201 1400 RA BR BECMG 1203/1204 6000 NSW BECMG 1212/1213 4000 BR

Decode

Destination Runways

ID Width Length Bearing (true) Bearing (mag) Surface Threshold Offset Overrun Length
11L 148 ft / 45 m 12,454 ft / 3,796 m 107.24° 108.72° Concrete 0 ft / 0 m 0 ft / 0 m
11R 148 ft / 45 m 12,456 ft / 3,797 m 107.22° 108.70° Concrete 0 ft / 0 m 325 ft / 99 m
29L 148 ft / 45 m 12,456 ft / 3,797 m 287.23° 288.71° Concrete 0 ft / 0 m 325 ft / 99 m
29R 148 ft / 45 m 12,454 ft / 3,796 m 287.25° 288.73° Concrete 0 ft / 0 m 868 ft / 265 m

Approach Navaids

Runway Type Ident Frequency Range Bearing (true) Bearing (mag) Slope Elevation
11L Localiser NB 110.50 MHz 18 nm / 33 km 104.05° 105.53° - 39 ft / 12 m (AMSL)
11L Glidescope NB 110.50 MHz 10 nm / 19 km 107.25° 108.73° 3.00° 39 ft / 12 m (AMSL)
11L DME NB 110.50 MHz 18 nm / 33 km - - - 39 ft / 12 m (AMSL)

Popular Alternatives